sensor_id;sensor_type;location;lat;lon;timestamp;temperature;humidity
16517;DHT22;8371;52.272;9.746;2023-06-14T00:01:50;17.70;39.90
16517;DHT22;8371;52.272;9.746;2023-06-14T00:04:15;17.60;40.00
16517;DHT22;8371;52.272;9.746;2023-06-14T00:06:46;17.60;40.10
16517;DHT22;8371;52.272;9.746;2023-06-14T00:09:12;17.50;40.20
16517;DHT22;8371;52.272;9.746;2023-06-14T00:11:41;17.50;40.40
16517;DHT22;8371;52.272;9.746;2023-06-14T00:14:07;17.40;40.40
16517;DHT22;8371;52.272;9.746;2023-06-14T00:16:33;17.30;40.60
16517;DHT22;8371;52.272;9.746;2023-06-14T00:19:01;17.20;40.60
16517;DHT22;8371;52.272;9.746;2023-06-14T00:21:31;17.10;40.80
16517;DHT22;8371;52.272;9.746;2023-06-14T00:24:00;17.00;40.90
16517;DHT22;8371;52.272;9.746;2023-06-14T00:26:26;16.90;41.00
16517;DHT22;8371;52.272;9.746;2023-06-14T00:28:52;16.80;41.10
16517;DHT22;8371;52.272;9.746;2023-06-14T00:31:18;16.70;41.20
16517;DHT22;8371;52.272;9.746;2023-06-14T00:33:44;16.60;41.90
16517;DHT22;8371;52.272;9.746;2023-06-14T00:36:10;16.50;41.30
16517;DHT22;8371;52.272;9.746;2023-06-14T00:38:36;16.50;41.40
16517;DHT22;8371;52.272;9.746;2023-06-14T00:41:01;16.40;41.40
16517;DHT22;8371;52.272;9.746;2023-06-14T00:43:27;16.50;41.40
16517;DHT22;8371;52.272;9.746;2023-06-14T00:45:53;16.40;41.60
16517;DHT22;8371;52.272;9.746;2023-06-14T00:48:18;16.30;41.80
16517;DHT22;8371;52.272;9.746;2023-06-14T00:50:45;16.30;42.00
16517;DHT22;8371;52.272;9.746;2023-06-14T00:53:12;16.30;42.10
16517;DHT22;8371;52.272;9.746;2023-06-14T00:55:38;16.20;42.00
16517;DHT22;8371;52.272;9.746;2023-06-14T00:58:03;16.20;42.20
16517;DHT22;8371;52.272;9.746;2023-06-14T01:00:29;16.30;42.40
16517;DHT22;8371;52.272;9.746;2023-06-14T01:02:55;16.30;42.80
16517;DHT22;8371;52.272;9.746;2023-06-14T01:05:21;16.30;42.70
16517;DHT22;8371;52.272;9.746;2023-06-14T01:08:01;16.20;42.70
16517;DHT22;8371;52.272;9.746;2023-06-14T01:10:37;16.20;42.70
16517;DHT22;8371;52.272;9.746;2023-06-14T01:13:12;16.30;42.80
16517;DHT22;8371;52.272;9.746;2023-06-14T01:15:39;16.20;42.70
16517;DHT22;8371;52.272;9.746;2023-06-14T01:18:06;16.10;42.70
16517;DHT22;8371;52.272;9.746;2023-06-14T01:20:33;16.10;43.00
16517;DHT22;8371;52.272;9.746;2023-06-14T01:23:00;16.10;43.10
16517;DHT22;8371;52.272;9.746;2023-06-14T01:25:26;16.10;43.20
16517;DHT22;8371;52.272;9.746;2023-06-14T01:27:58;16.00;43.30
16517;DHT22;8371;52.272;9.746;2023-06-14T01:30:24;15.90;43.30
16517;DHT22;8371;52.272;9.746;2023-06-14T01:32:54;16.00;43.40
16517;DHT22;8371;52.272;9.746;2023-06-14T01:35:21;15.80;43.50
16517;DHT22;8371;52.272;9.746;2023-06-14T01:37:48;15.90;43.80
16517;DHT22;8371;52.272;9.746;2023-06-14T01:40:15;15.90;43.80
16517;DHT22;8371;52.272;9.746;2023-06-14T01:42:41;15.80;44.00
16517;DHT22;8371;52.272;9.746;2023-06-14T01:45:09;15.80;43.90
16517;DHT22;8371;52.272;9.746;2023-06-14T01:47:35;15.70;44.00
16517;DHT22;8371;52.272;9.746;2023-06-14T01:50:02;15.70;44.20
16517;DHT22;8371;52.272;9.746;2023-06-14T01:52:28;15.70;44.20
16517;DHT22;8371;52.272;9.746;2023-06-14T01:54:54;15.60;44.10
16517;DHT22;8371;52.272;9.746;2023-06-14T01:57:20;15.60;44.10
16517;DHT22;8371;52.272;9.746;2023-06-14T01:59:47;15.50;44.40
16517;DHT22;8371;52.272;9.746;2023-06-14T02:02:14;15.50;44.70
16517;DHT22;8371;52.272;9.746;2023-06-14T02:04:41;15.40;44.70
16517;DHT22;8371;52.272;9.746;2023-06-14T02:07:07;15.40;44.90
16517;DHT22;8371;52.272;9.746;2023-06-14T02:09:35;15.40;44.90
16517;DHT22;8371;52.272;9.746;2023-06-14T02:12:01;15.30;44.90
16517;DHT22;8371;52.272;9.746;2023-06-14T02:14:27;15.30;44.70
16517;DHT22;8371;52.272;9.746;2023-06-14T02:16:53;15.20;44.80
16517;DHT22;8371;52.272;9.746;2023-06-14T02:19:19;15.20;45.30
16517;DHT22;8371;52.272;9.746;2023-06-14T02:21:46;15.20;45.30
16517;DHT22;8371;52.272;9.746;2023-06-14T02:24:12;15.20;46.00
16517;DHT22;8371;52.272;9.746;2023-06-14T02:26:38;15.20;45.40
16517;DHT22;8371;52.272;9.746;2023-06-14T02:29:06;15.20;45.50
16517;DHT22;8371;52.272;9.746;2023-06-14T02:31:35;15.10;45.60
16517;DHT22;8371;52.272;9.746;2023-06-14T02:34:01;15.10;45.80
16517;DHT22;8371;52.272;9.746;2023-06-14T02:36:27;15.00;45.80
16517;DHT22;8371;52.272;9.746;2023-06-14T02:38:55;15.00;46.00
16517;DHT22;8371;52.272;9.746;2023-06-14T02:41:23;14.90;46.10
16517;DHT22;8371;52.272;9.746;2023-06-14T02:43:49;14.90;46.10
16517;DHT22;8371;52.272;9.746;2023-06-14T02:46:15;14.80;46.10
16517;DHT22;8371;52.272;9.746;2023-06-14T02:48:41;14.70;46.20
16517;DHT22;8371;52.272;9.746;2023-06-14T02:51:06;14.70;46.30
16517;DHT22;8371;52.272;9.746;2023-06-14T02:53:33;14.70;46.40
16517;DHT22;8371;52.272;9.746;2023-06-14T02:56:00;14.60;46.40
16517;DHT22;8371;52.272;9.746;2023-06-14T02:58:27;14.60;46.50
16517;DHT22;8371;52.272;9.746;2023-06-14T03:00:52;14.50;46.60
16517;DHT22;8371;52.272;9.746;2023-06-14T03:03:18;14.50;46.80
16517;DHT22;8371;52.272;9.746;2023-06-14T03:05:47;14.40;46.80
16517;DHT22;8371;52.272;9.746;2023-06-14T03:08:14;14.30;46.80
16517;DHT22;8371;52.272;9.746;2023-06-14T03:10:42;14.30;47.60
16517;DHT22;8371;52.272;9.746;2023-06-14T03:13:08;14.20;47.00
16517;DHT22;8371;52.272;9.746;2023-06-14T03:15:36;14.20;47.20
16517;DHT22;8371;52.272;9.746;2023-06-14T03:18:02;14.10;47.30
16517;DHT22;8371;52.272;9.746;2023-06-14T03:20:29;14.10;47.50
16517;DHT22;8371;52.272;9.746;2023-06-14T03:22:56;14.10;47.60
16517;DHT22;8371;52.272;9.746;2023-06-14T03:25:22;14.00;47.60
16517;DHT22;8371;52.272;9.746;2023-06-14T03:27:48;14.00;47.70
16517;DHT22;8371;52.272;9.746;2023-06-14T03:30:14;14.00;47.80
16517;DHT22;8371;52.272;9.746;2023-06-14T03:32:39;13.90;47.90
16517;DHT22;8371;52.272;9.746;2023-06-14T03:35:05;13.90;48.00
16517;DHT22;8371;52.272;9.746;2023-06-14T03:37:31;13.90;48.10
16517;DHT22;8371;52.272;9.746;2023-06-14T03:39:57;13.90;48.20
16517;DHT22;8371;52.272;9.746;2023-06-14T03:42:23;13.90;48.50
16517;DHT22;8371;52.272;9.746;2023-06-14T03:44:48;13.90;48.90
16517;DHT22;8371;52.272;9.746;2023-06-14T03:47:14;14.10;49.30
16517;DHT22;8371;52.272;9.746;2023-06-14T03:49:40;14.20;49.50
16517;DHT22;8371;52.272;9.746;2023-06-14T03:52:06;14.40;49.40
16517;DHT22;8371;52.272;9.746;2023-06-14T03:54:32;14.70;49.50
16517;DHT22;8371;52.272;9.746;2023-06-14T03:56:58;15.00;49.60
16517;DHT22;8371;52.272;9.746;2023-06-14T03:59:24;15.30;49.60
16517;DHT22;8371;52.272;9.746;2023-06-14T04:01:51;15.60;49.60
16517;DHT22;8371;52.272;9.746;2023-06-14T04:04:16;15.90;49.40
16517;DHT22;8371;52.272;9.746;2023-06-14T04:06:43;16.30;49.60
16517;DHT22;8371;52.272;9.746;2023-06-14T04:09:09;16.60;49.20
16517;DHT22;8371;52.272;9.746;2023-06-14T04:11:35;16.90;49.00
16517;DHT22;8371;52.272;9.746;2023-06-14T04:14:01;17.20;48.90
16517;DHT22;8371;52.272;9.746;2023-06-14T04:16:27;17.50;48.80
16517;DHT22;8371;52.272;9.746;2023-06-14T04:18:56;17.80;48.80
16517;DHT22;8371;52.272;9.746;2023-06-14T04:21:23;18.10;48.40
16517;DHT22;8371;52.272;9.746;2023-06-14T04:23:49;18.40;48.20
16517;DHT22;8371;52.272;9.746;2023-06-14T04:26:16;18.60;48.30
16517;DHT22;8371;52.272;9.746;2023-06-14T04:28:42;18.80;47.80
16517;DHT22;8371;52.272;9.746;2023-06-14T04:31:10;18.90;47.40
16517;DHT22;8371;52.272;9.746;2023-06-14T04:33:37;19.20;48.00
16517;DHT22;8371;52.272;9.746;2023-06-14T04:36:04;19.40;47.10
16517;DHT22;8371;52.272;9.746;2023-06-14T04:38:30;19.50;46.90
16517;DHT22;8371;52.272;9.746;2023-06-14T04:40:58;19.70;46.90
16517;DHT22;8371;52.272;9.746;2023-06-14T04:43:25;19.70;46.70
16517;DHT22;8371;52.272;9.746;2023-06-14T04:45:53;19.80;46.50
16517;DHT22;8371;52.272;9.746;2023-06-14T04:48:21;19.90;46.50
16517;DHT22;8371;52.272;9.746;2023-06-14T04:50:48;20.00;46.40
16517;DHT22;8371;52.272;9.746;2023-06-14T04:53:13;20.00;46.10
16517;DHT22;8371;52.272;9.746;2023-06-14T04:55:39;20.10;46.30
16517;DHT22;8371;52.272;9.746;2023-06-14T04:58:05;20.10;46.30
16517;DHT22;8371;52.272;9.746;2023-06-14T05:00:31;20.20;46.30
16517;DHT22;8371;52.272;9.746;2023-06-14T05:02:57;20.20;46.30
16517;DHT22;8371;52.272;9.746;2023-06-14T05:05:22;20.20;46.30
16517;DHT22;8371;52.272;9.746;2023-06-14T05:07:49;20.30;46.30
16517;DHT22;8371;52.272;9.746;2023-06-14T05:10:15;20.30;46.40
16517;DHT22;8371;52.272;9.746;2023-06-14T05:12:40;20.30;46.30
16517;DHT22;8371;52.272;9.746;2023-06-14T05:15:09;20.30;46.20
16517;DHT22;8371;52.272;9.746;2023-06-14T05:17:36;20.30;46.00
16517;DHT22;8371;52.272;9.746;2023-06-14T05:20:02;20.40;46.10
16517;DHT22;8371;52.272;9.746;2023-06-14T05:22:28;20.40;46.20
16517;DHT22;8371;52.272;9.746;2023-06-14T05:24:53;20.40;45.90
16517;DHT22;8371;52.272;9.746;2023-06-14T05:27:19;20.40;45.90
16517;DHT22;8371;52.272;9.746;2023-06-14T05:29:45;20.40;46.20
16517;DHT22;8371;52.272;9.746;2023-06-14T05:32:10;20.40;45.90
16517;DHT22;8371;52.272;9.746;2023-06-14T05:34:36;20.50;46.40
16517;DHT22;8371;52.272;9.746;2023-06-14T05:37:02;20.40;46.10
16517;DHT22;8371;52.272;9.746;2023-06-14T05:39:29;20.50;46.00
16517;DHT22;8371;52.272;9.746;2023-06-14T05:41:55;20.50;46.10
16517;DHT22;8371;52.272;9.746;2023-06-14T05:44:21;20.40;46.00
16517;DHT22;8371;52.272;9.746;2023-06-14T05:46:46;20.50;46.10
16517;DHT22;8371;52.272;9.746;2023-06-14T05:49:12;20.50;46.20
16517;DHT22;8371;52.272;9.746;2023-06-14T05:51:38;20.50;46.40
16517;DHT22;8371;52.272;9.746;2023-06-14T05:54:03;20.50;46.20
16517;DHT22;8371;52.272;9.746;2023-06-14T05:56:29;20.50;46.30
16517;DHT22;8371;52.272;9.746;2023-06-14T05:58:55;20.50;46.50
16517;DHT22;8371;52.272;9.746;2023-06-14T06:01:20;20.60;46.60
16517;DHT22;8371;52.272;9.746;2023-06-14T06:03:46;20.70;46.80
16517;DHT22;8371;52.272;9.746;2023-06-14T06:06:13;20.70;46.50
16517;DHT22;8371;52.272;9.746;2023-06-14T06:08:39;20.80;46.90
16517;DHT22;8371;52.272;9.746;2023-06-14T06:11:05;20.90;46.40
16517;DHT22;8371;52.272;9.746;2023-06-14T06:13:31;21.00;46.30
16517;DHT22;8371;52.272;9.746;2023-06-14T06:15:57;21.00;46.20
16517;DHT22;8371;52.272;9.746;2023-06-14T06:18:23;21.10;46.30
16517;DHT22;8371;52.272;9.746;2023-06-14T06:20:48;21.20;46.30
16517;DHT22;8371;52.272;9.746;2023-06-14T06:23:14;21.30;46.00
16517;DHT22;8371;52.272;9.746;2023-06-14T06:25:40;21.30;46.00
16517;DHT22;8371;52.272;9.746;2023-06-14T06:28:05;21.30;46.00
16517;DHT22;8371;52.272;9.746;2023-06-14T06:30:31;21.40;45.90
16517;DHT22;8371;52.272;9.746;2023-06-14T06:32:57;21.40;46.00
16517;DHT22;8371;52.272;9.746;2023-06-14T06:35:23;21.40;45.80
16517;DHT22;8371;52.272;9.746;2023-06-14T06:37:49;21.60;46.00
16517;DHT22;8371;52.272;9.746;2023-06-14T06:40:14;21.60;46.00
16517;DHT22;8371;52.272;9.746;2023-06-14T06:42:41;21.60;45.80
16517;DHT22;8371;52.272;9.746;2023-06-14T06:45:07;21.70;45.80
16517;DHT22;8371;52.272;9.746;2023-06-14T06:47:33;21.80;45.80
16517;DHT22;8371;52.272;9.746;2023-06-14T06:49:58;21.90;45.90
16517;DHT22;8371;52.272;9.746;2023-06-14T06:52:24;21.90;45.80
16517;DHT22;8371;52.272;9.746;2023-06-14T06:54:50;22.00;45.60
16517;DHT22;8371;52.272;9.746;2023-06-14T06:57:17;22.10;45.70
16517;DHT22;8371;52.272;9.746;2023-06-14T06:59:43;22.20;45.60
16517;DHT22;8371;52.272;9.746;2023-06-14T07:02:09;22.30;45.50
16517;DHT22;8371;52.272;9.746;2023-06-14T07:04:34;22.40;45.50
16517;DHT22;8371;52.272;9.746;2023-06-14T07:07:00;22.50;45.50
16517;DHT22;8371;52.272;9.746;2023-06-14T07:09:26;22.60;45.30
16517;DHT22;8371;52.272;9.746;2023-06-14T07:11:52;22.70;45.10
16517;DHT22;8371;52.272;9.746;2023-06-14T07:14:18;22.80;44.90
16517;DHT22;8371;52.272;9.746;2023-06-14T07:16:43;22.80;44.50
16517;DHT22;8371;52.272;9.746;2023-06-14T07:19:09;22.90;44.30
16517;DHT22;8371;52.272;9.746;2023-06-14T07:21:35;23.00;44.40
16517;DHT22;8371;52.272;9.746;2023-06-14T07:24:05;23.00;44.40
16517;DHT22;8371;52.272;9.746;2023-06-14T07:26:32;23.10;44.40
16517;DHT22;8371;52.272;9.746;2023-06-14T07:28:57;23.20;44.40
16517;DHT22;8371;52.272;9.746;2023-06-14T07:31:23;23.30;44.30
16517;DHT22;8371;52.272;9.746;2023-06-14T07:33:49;23.40;44.00
16517;DHT22;8371;52.272;9.746;2023-06-14T07:36:14;23.60;43.80
16517;DHT22;8371;52.272;9.746;2023-06-14T07:38:40;23.70;43.60
16517;DHT22;8371;52.272;9.746;2023-06-14T07:41:06;23.80;43.60
16517;DHT22;8371;52.272;9.746;2023-06-14T07:43:32;23.90;43.60
16517;DHT22;8371;52.272;9.746;2023-06-14T07:45:57;24.10;43.60
16517;DHT22;8371;52.272;9.746;2023-06-14T07:48:23;24.20;43.60
16517;DHT22;8371;52.272;9.746;2023-06-14T07:50:49;24.30;43.30
16517;DHT22;8371;52.272;9.746;2023-06-14T07:53:14;24.50;43.00
16517;DHT22;8371;52.272;9.746;2023-06-14T07:55:40;24.70;42.50
16517;DHT22;8371;52.272;9.746;2023-06-14T07:58:07;24.70;42.10
16517;DHT22;8371;52.272;9.746;2023-06-14T08:00:33;24.70;42.20
16517;DHT22;8371;52.272;9.746;2023-06-14T08:02:59;24.80;42.10
16517;DHT22;8371;52.272;9.746;2023-06-14T08:05:27;24.80;41.80
16517;DHT22;8371;52.272;9.746;2023-06-14T08:07:53;24.90;41.80
16517;DHT22;8371;52.272;9.746;2023-06-14T08:10:20;24.90;41.30
16517;DHT22;8371;52.272;9.746;2023-06-14T08:12:46;25.00;41.20
16517;DHT22;8371;52.272;9.746;2023-06-14T08:15:12;25.10;41.10
16517;DHT22;8371;52.272;9.746;2023-06-14T08:17:37;25.10;41.10
16517;DHT22;8371;52.272;9.746;2023-06-14T08:20:04;25.10;41.10
16517;DHT22;8371;52.272;9.746;2023-06-14T08:22:31;25.20;41.10
16517;DHT22;8371;52.272;9.746;2023-06-14T08:24:58;25.30;41.00
16517;DHT22;8371;52.272;9.746;2023-06-14T08:30:22;25.40;40.40
16517;DHT22;8371;52.272;9.746;2023-06-14T08:32:48;25.50;40.40
16517;DHT22;8371;52.272;9.746;2023-06-14T08:35:14;25.50;40.20
16517;DHT22;8371;52.272;9.746;2023-06-14T08:37:40;25.50;40.30
16517;DHT22;8371;52.272;9.746;2023-06-14T08:42:41;25.60;40.10
16517;DHT22;8371;52.272;9.746;2023-06-14T08:45:08;25.60;40.10
16517;DHT22;8371;52.272;9.746;2023-06-14T08:47:33;25.60;40.20
16517;DHT22;8371;52.272;9.746;2023-06-14T08:50:01;25.70;40.00
16517;DHT22;8371;52.272;9.746;2023-06-14T08:52:28;25.80;40.10
16517;DHT22;8371;52.272;9.746;2023-06-14T08:54:58;25.80;40.10
16517;DHT22;8371;52.272;9.746;2023-06-14T08:57:26;25.90;40.00
16517;DHT22;8371;52.272;9.746;2023-06-14T08:59:55;26.00;39.90
16517;DHT22;8371;52.272;9.746;2023-06-14T09:02:21;26.10;39.70
16517;DHT22;8371;52.272;9.746;2023-06-14T09:04:47;26.10;39.80
16517;DHT22;8371;52.272;9.746;2023-06-14T09:07:15;26.20;39.50
16517;DHT22;8371;52.272;9.746;2023-06-14T09:09:41;26.30;39.70
16517;DHT22;8371;52.272;9.746;2023-06-14T09:12:11;26.40;39.60
16517;DHT22;8371;52.272;9.746;2023-06-14T09:14:38;26.50;39.60
16517;DHT22;8371;52.272;9.746;2023-06-14T09:17:05;26.70;39.40
16517;DHT22;8371;52.272;9.746;2023-06-14T09:19:31;26.80;39.20
16517;DHT22;8371;52.272;9.746;2023-06-14T09:21:57;27.00;39.30
16517;DHT22;8371;52.272;9.746;2023-06-14T09:24:24;27.00;38.90
16517;DHT22;8371;52.272;9.746;2023-06-14T09:26:51;27.10;38.60
16517;DHT22;8371;52.272;9.746;2023-06-14T09:29:18;27.10;38.60
16517;DHT22;8371;52.272;9.746;2023-06-14T09:31:46;27.30;38.50
16517;DHT22;8371;52.272;9.746;2023-06-14T09:34:12;27.30;38.10
16517;DHT22;8371;52.272;9.746;2023-06-14T09:36:39;27.30;38.20
16517;DHT22;8371;52.272;9.746;2023-06-14T09:39:05;27.40;38.30
16517;DHT22;8371;52.272;9.746;2023-06-14T09:41:35;27.50;37.70
16517;DHT22;8371;52.272;9.746;2023-06-14T09:44:03;27.60;37.10
16517;DHT22;8371;52.272;9.746;2023-06-14T09:46:29;27.70;37.30
16517;DHT22;8371;52.272;9.746;2023-06-14T09:48:56;27.70;37.00
16517;DHT22;8371;52.272;9.746;2023-06-14T09:51:23;27.70;37.30
16517;DHT22;8371;52.272;9.746;2023-06-14T09:53:49;27.70;37.70
16517;DHT22;8371;52.272;9.746;2023-06-14T09:56:19;27.80;37.30
16517;DHT22;8371;52.272;9.746;2023-06-14T09:58:45;27.90;37.10
16517;DHT22;8371;52.272;9.746;2023-06-14T10:01:11;28.00;36.80
16517;DHT22;8371;52.272;9.746;2023-06-14T10:03:39;28.10;36.90
16517;DHT22;8371;52.272;9.746;2023-06-14T10:06:07;28.20;36.20
16517;DHT22;8371;52.272;9.746;2023-06-14T10:08:34;28.30;36.30
16517;DHT22;8371;52.272;9.746;2023-06-14T10:11:02;28.30;36.00
16517;DHT22;8371;52.272;9.746;2023-06-14T10:13:31;28.30;36.20
16517;DHT22;8371;52.272;9.746;2023-06-14T10:16:20;28.30;36.20
16517;DHT22;8371;52.272;9.746;2023-06-14T10:21:48;28.40;36.40
16517;DHT22;8371;52.272;9.746;2023-06-14T10:24:16;28.70;36.60
16517;DHT22;8371;52.272;9.746;2023-06-14T10:26:52;28.80;36.30
16517;DHT22;8371;52.272;9.746;2023-06-14T10:29:19;28.90;36.00
16517;DHT22;8371;52.272;9.746;2023-06-14T10:31:47;29.10;36.00
16517;DHT22;8371;52.272;9.746;2023-06-14T10:34:27;29.20;36.00
16517;DHT22;8371;52.272;9.746;2023-06-14T10:37:11;29.40;36.10
16517;DHT22;8371;52.272;9.746;2023-06-14T10:39:43;29.60;35.90
16517;DHT22;8371;52.272;9.746;2023-06-14T10:42:11;29.80;35.60
16517;DHT22;8371;52.272;9.746;2023-06-14T10:47:33;30.20;35.20
16517;DHT22;8371;52.272;9.746;2023-06-14T10:49:53;30.30;34.80
16517;DHT22;8371;52.272;9.746;2023-06-14T10:52:27;30.40;34.40
16517;DHT22;8371;52.272;9.746;2023-06-14T10:55:06;30.50;34.30
16517;DHT22;8371;52.272;9.746;2023-06-14T10:57:38;30.50;34.00
16517;DHT22;8371;52.272;9.746;2023-06-14T11:00:06;30.50;34.10
16517;DHT22;8371;52.272;9.746;2023-06-14T11:03:22;30.50;34.20
16517;DHT22;8371;52.272;9.746;2023-06-14T11:05:49;30.50;34.10
16517;DHT22;8371;52.272;9.746;2023-06-14T11:08:27;30.50;33.80
16517;DHT22;8371;52.272;9.746;2023-06-14T11:10:51;30.50;33.80
16517;DHT22;8371;52.272;9.746;2023-06-14T11:13:22;30.50;33.80
16517;DHT22;8371;52.272;9.746;2023-06-14T11:15:51;30.60;33.80
16517;DHT22;8371;52.272;9.746;2023-06-14T11:18:19;30.60;34.00
16517;DHT22;8371;52.272;9.746;2023-06-14T11:20:47;30.50;33.40
16517;DHT22;8371;52.272;9.746;2023-06-14T11:23:13;30.40;33.40
16517;DHT22;8371;52.272;9.746;2023-06-14T11:25:38;30.40;33.50
16517;DHT22;8371;52.272;9.746;2023-06-14T11:28:04;30.20;33.10
16517;DHT22;8371;52.272;9.746;2023-06-14T11:30:30;30.10;33.20
16517;DHT22;8371;52.272;9.746;2023-06-14T11:32:57;30.00;33.60
16517;DHT22;8371;52.272;9.746;2023-06-14T11:35:22;29.90;33.70
16517;DHT22;8371;52.272;9.746;2023-06-14T11:37:52;29.80;34.40
16517;DHT22;8371;52.272;9.746;2023-06-14T11:40:17;29.80;33.70
16517;DHT22;8371;52.272;9.746;2023-06-14T11:42:43;29.60;33.60
16517;DHT22;8371;52.272;9.746;2023-06-14T11:45:10;29.60;33.50
16517;DHT22;8371;52.272;9.746;2023-06-14T11:47:40;29.50;33.50
16517;DHT22;8371;52.272;9.746;2023-06-14T11:50:08;29.60;33.80
16517;DHT22;8371;52.272;9.746;2023-06-14T11:52:34;29.60;34.00
16517;DHT22;8371;52.272;9.746;2023-06-14T11:55:00;29.60;33.70
16517;DHT22;8371;52.272;9.746;2023-06-14T11:57:28;29.70;33.90
16517;DHT22;8371;52.272;9.746;2023-06-14T11:59:55;29.80;33.70
16517;DHT22;8371;52.272;9.746;2023-06-14T12:02:21;29.80;33.90
16517;DHT22;8371;52.272;9.746;2023-06-14T12:04:48;29.90;33.90
16517;DHT22;8371;52.272;9.746;2023-06-14T12:07:15;30.00;33.40
16517;DHT22;8371;52.272;9.746;2023-06-14T12:12:22;30.00;33.30
16517;DHT22;8371;52.272;9.746;2023-06-14T12:14:48;29.90;33.20
16517;DHT22;8371;52.272;9.746;2023-06-14T12:17:17;29.80;33.40
16517;DHT22;8371;52.272;9.746;2023-06-14T12:19:44;29.80;33.40
16517;DHT22;8371;52.272;9.746;2023-06-14T12:22:12;29.70;33.30
16517;DHT22;8371;52.272;9.746;2023-06-14T12:24:37;29.60;33.50
16517;DHT22;8371;52.272;9.746;2023-06-14T12:27:05;29.60;33.60
16517;DHT22;8371;52.272;9.746;2023-06-14T12:29:31;29.60;33.60
16517;DHT22;8371;52.272;9.746;2023-06-14T12:31:58;29.70;33.50
16517;DHT22;8371;52.272;9.746;2023-06-14T12:34:24;29.70;33.50
16517;DHT22;8371;52.272;9.746;2023-06-14T12:36:50;29.60;33.30
16517;DHT22;8371;52.272;9.746;2023-06-14T12:39:16;29.50;33.80
16517;DHT22;8371;52.272;9.746;2023-06-14T12:41:42;29.50;34.00
16517;DHT22;8371;52.272;9.746;2023-06-14T12:44:08;29.60;34.00
16517;DHT22;8371;52.272;9.746;2023-06-14T12:46:34;29.50;34.20
16517;DHT22;8371;52.272;9.746;2023-06-14T12:49:01;29.60;34.20
16517;DHT22;8371;52.272;9.746;2023-06-14T12:51:27;29.60;33.80
16517;DHT22;8371;52.272;9.746;2023-06-14T12:53:53;29.60;33.50
16517;DHT22;8371;52.272;9.746;2023-06-14T12:56:19;29.60;33.50
16517;DHT22;8371;52.272;9.746;2023-06-14T12:58:45;29.50;33.60
16517;DHT22;8371;52.272;9.746;2023-06-14T13:01:10;29.40;33.80
16517;DHT22;8371;52.272;9.746;2023-06-14T13:03:36;29.30;33.90
16517;DHT22;8371;52.272;9.746;2023-06-14T13:06:02;29.20;33.80
16517;DHT22;8371;52.272;9.746;2023-06-14T13:08:29;29.10;33.80
16517;DHT22;8371;52.272;9.746;2023-06-14T13:10:56;29.00;34.00
16517;DHT22;8371;52.272;9.746;2023-06-14T13:13:22;28.90;34.00
16517;DHT22;8371;52.272;9.746;2023-06-14T13:15:48;28.80;34.10
16517;DHT22;8371;52.272;9.746;2023-06-14T13:18:15;28.80;34.40
16517;DHT22;8371;52.272;9.746;2023-06-14T13:20:41;28.70;34.40
16517;DHT22;8371;52.272;9.746;2023-06-14T13:23:07;28.70;34.50
16517;DHT22;8371;52.272;9.746;2023-06-14T13:25:34;28.70;34.90
16517;DHT22;8371;52.272;9.746;2023-06-14T13:28:00;28.80;35.20
16517;DHT22;8371;52.272;9.746;2023-06-14T13:30:25;28.90;35.20
16517;DHT22;8371;52.272;9.746;2023-06-14T13:32:51;29.10;35.00
16517;DHT22;8371;52.272;9.746;2023-06-14T13:35:18;29.30;35.20
16517;DHT22;8371;52.272;9.746;2023-06-14T13:37:44;29.60;35.10
16517;DHT22;8371;52.272;9.746;2023-06-14T13:40:11;29.80;34.80
16517;DHT22;8371;52.272;9.746;2023-06-14T13:42:37;30.00;34.40
16517;DHT22;8371;52.272;9.746;2023-06-14T13:45:07;30.20;34.10
16517;DHT22;8371;52.272;9.746;2023-06-14T13:47:33;30.50;33.80
16517;DHT22;8371;52.272;9.746;2023-06-14T13:49:59;30.60;34.30
16517;DHT22;8371;52.272;9.746;2023-06-14T13:52:25;30.70;33.50
16517;DHT22;8371;52.272;9.746;2023-06-14T13:54:51;30.90;33.70
16517;DHT22;8371;52.272;9.746;2023-06-14T13:57:17;31.10;33.50
16517;DHT22;8371;52.272;9.746;2023-06-14T13:59:43;31.30;33.60
16517;DHT22;8371;52.272;9.746;2023-06-14T14:02:10;31.50;33.10
16517;DHT22;8371;52.272;9.746;2023-06-14T14:04:37;31.60;32.70
16517;DHT22;8371;52.272;9.746;2023-06-14T14:07:04;31.60;32.50
16517;DHT22;8371;52.272;9.746;2023-06-14T14:09:30;31.30;38.40
16517;DHT22;8371;52.272;9.746;2023-06-14T14:11:56;31.50;32.00
16517;DHT22;8371;52.272;9.746;2023-06-14T14:14:22;31.30;31.80
16517;DHT22;8371;52.272;9.746;2023-06-14T14:16:49;31.00;31.90
16517;DHT22;8371;52.272;9.746;2023-06-14T14:19:17;30.90;32.00
16517;DHT22;8371;52.272;9.746;2023-06-14T14:21:44;30.70;32.00
16517;DHT22;8371;52.272;9.746;2023-06-14T14:24:10;30.60;32.80
16517;DHT22;8371;52.272;9.746;2023-06-14T14:26:36;30.40;32.30
16517;DHT22;8371;52.272;9.746;2023-06-14T14:29:02;30.20;32.20
16517;DHT22;8371;52.272;9.746;2023-06-14T14:31:30;30.30;32.50
16517;DHT22;8371;52.272;9.746;2023-06-14T14:33:56;30.10;32.60
16517;DHT22;8371;52.272;9.746;2023-06-14T14:36:21;30.10;32.70
16517;DHT22;8371;52.272;9.746;2023-06-14T14:38:47;30.10;32.80
16517;DHT22;8371;52.272;9.746;2023-06-14T14:41:13;30.10;32.50
16517;DHT22;8371;52.272;9.746;2023-06-14T14:43:39;30.30;32.80
16517;DHT22;8371;52.272;9.746;2023-06-14T14:46:05;30.40;32.70
16517;DHT22;8371;52.272;9.746;2023-06-14T14:48:31;30.60;32.90
16517;DHT22;8371;52.272;9.746;2023-06-14T14:50:57;30.70;32.70
16517;DHT22;8371;52.272;9.746;2023-06-14T14:53:22;30.80;32.50
16517;DHT22;8371;52.272;9.746;2023-06-14T14:55:49;31.00;32.30
16517;DHT22;8371;52.272;9.746;2023-06-14T14:58:15;31.10;32.20
16517;DHT22;8371;52.272;9.746;2023-06-14T15:00:44;31.10;32.10
16517;DHT22;8371;52.272;9.746;2023-06-14T15:03:10;31.20;31.60
16517;DHT22;8371;52.272;9.746;2023-06-14T15:05:36;31.20;31.60
16517;DHT22;8371;52.272;9.746;2023-06-14T15:08:03;31.20;31.50
16517;DHT22;8371;52.272;9.746;2023-06-14T15:10:29;31.10;31.60
16517;DHT22;8371;52.272;9.746;2023-06-14T15:12:55;31.00;31.50
16517;DHT22;8371;52.272;9.746;2023-06-14T15:15:22;30.90;31.50
16517;DHT22;8371;52.272;9.746;2023-06-14T15:17:47;30.80;31.50
16517;DHT22;8371;52.272;9.746;2023-06-14T15:20:13;30.60;31.30
16517;DHT22;8371;52.272;9.746;2023-06-14T15:22:40;30.50;31.50
16517;DHT22;8371;52.272;9.746;2023-06-14T15:25:06;30.40;31.60
16517;DHT22;8371;52.272;9.746;2023-06-14T15:27:32;30.20;31.70
16517;DHT22;8371;52.272;9.746;2023-06-14T15:29:58;30.00;31.70
16517;DHT22;8371;52.272;9.746;2023-06-14T15:32:24;29.80;32.40
16517;DHT22;8371;52.272;9.746;2023-06-14T15:34:49;29.60;31.80
16517;DHT22;8371;52.272;9.746;2023-06-14T15:37:15;29.50;32.00
16517;DHT22;8371;52.272;9.746;2023-06-14T15:39:41;29.30;32.20
16517;DHT22;8371;52.272;9.746;2023-06-14T15:42:07;29.20;32.30
16517;DHT22;8371;52.272;9.746;2023-06-14T15:44:33;29.10;32.40
16517;DHT22;8371;52.272;9.746;2023-06-14T15:46:59;28.90;32.50
16517;DHT22;8371;52.272;9.746;2023-06-14T15:49:24;28.90;32.70
16517;DHT22;8371;52.272;9.746;2023-06-14T15:51:51;28.80;32.80
16517;DHT22;8371;52.272;9.746;2023-06-14T15:54:17;28.70;32.90
16517;DHT22;8371;52.272;9.746;2023-06-14T15:56:42;28.70;33.00